Estación de Coihueco

Ultimos registro cada 15 minutos 91
Estación Fecha / Hora Temperatura Humedad Lluvia Velocidad Dirección Radiación Presion
91 Coihueco 30-08-2026 22:30 9,9 86,5 0 0 0 0,6 995,6
90 Coihueco 30-08-2026 22:15 10 88 0 0 0 0,6 995,3
89 Coihueco 30-08-2026 22:00 10,4 85,6 0 0 0 0,6 995,5
88 Coihueco 30-08-2026 21:45 11 80,2 0 0 0 0,6 995,4
87 Coihueco 30-08-2026 21:30 11 81,6 0 0 0 0,6 995,3
86 Coihueco 30-08-2026 21:15 11,6 80,2 0 0 0 0,6 994,9
85 Coihueco 30-08-2026 21:00 11,6 83,3 0 0 28 0,6 994,7
84 Coihueco 30-08-2026 20:45 11,3 87,1 0 0 35 0,6 994,4
83 Coihueco 30-08-2026 20:30 11 89,1 0 0 35 0,6 994,3
82 Coihueco 30-08-2026 20:15 10,9 90,4 0 0 35 0,6 994,1
81 Coihueco 30-08-2026 20:00 10,9 88,7 0 0 35 0,6 993,9
80 Coihueco 30-08-2026 19:45 11,3 87,7 0 0 35 0,6 993,8
79 Coihueco 30-08-2026 19:30 11,7 83,5 0 0 35 0,6 993,5
78 Coihueco 30-08-2026 19:15 12,2 81,2 0 0 35 0,6 993,3
77 Coihueco 30-08-2026 19:00 12,4 80,8 0 0 35 0,6 993
76 Coihueco 30-08-2026 18:45 12,4 81,2 0 0 46 0,6 992,9
75 Coihueco 30-08-2026 18:30 12,5 83,8 0 0 44 0,6 992,7
74 Coihueco 30-08-2026 18:15 13,1 80,2 0 0,5 25 5,6 992,5
73 Coihueco 30-08-2026 18:00 13,4 78,8 0 0 32 14,4 992,3
72 Coihueco 30-08-2026 17:45 13,8 76 0 0,5 37 31,9 992,1
71 Coihueco 30-08-2026 17:30 14,1 72 0 1 34 48,1 992
70 Coihueco 30-08-2026 17:15 14,3 70,8 0 1,5 38 74,4 991,8
69 Coihueco 30-08-2026 17:00 14,6 71,3 0 1 32 91,9 991,7
68 Coihueco 30-08-2026 16:45 14,7 69,1 0 1 34 121,9 991,5
67 Coihueco 30-08-2026 16:30 14,9 65,9 0 1,5 25 125,6 991,6
66 Coihueco 30-08-2026 16:15 15 65,1 0 1,5 27 168,1 991,4
65 Coihueco 30-08-2026 16:00 15 65,4 0 1,5 35 154,4 991,2
64 Coihueco 30-08-2026 15:45 15,4 63 0 1 31 174,4 991,2
63 Coihueco 30-08-2026 15:30 15,5 65,9 0 1,5 24 220,6 991,1
62 Coihueco 30-08-2026 15:15 15,7 64,3 0 1,5 20 271,9 991
61 Coihueco 30-08-2026 15:00 15,9 63,5 0 2 25 415,6 990,9
60 Coihueco 30-08-2026 14:45 16,3 61,8 0 1 18 328,1 990,9
59 Coihueco 30-08-2026 14:30 16,3 65 0 1,5 355 404,4 990,8
58 Coihueco 30-08-2026 14:15 16,1 66,4 0 1,5 355 504,4 991,1
57 Coihueco 30-08-2026 14:00 16,1 66,9 0 1 358 598,1 991,1
56 Coihueco 30-08-2026 13:45 15 70,3 0 1 354 238,1 991,3
55 Coihueco 30-08-2026 13:30 15,3 68,3 0 1 344 411,9 991,2
54 Coihueco 30-08-2026 13:15 15,4 71,5 0 1 347 256,9 991,5
53 Coihueco 30-08-2026 13:00 15,5 74,4 0 1 306 701,9 991,3
52 Coihueco 30-08-2026 12:45 15,4 73,5 0 1,5 334 691,9 991,3
51 Coihueco 30-08-2026 12:30 14,7 71,7 0 1 338 571,9 991,4
50 Coihueco 30-08-2026 12:15 15 71 0 1 352 296,9 991,1
49 Coihueco 30-08-2026 12:00 14,6 71,6 0 1 341 616,9 991,1
48 Coihueco 30-08-2026 11:45 15,1 71 0 1 45 496,9 991,1
47 Coihueco 30-08-2026 11:30 14,9 68,3 0 1 1 551,9 991
46 Coihueco 30-08-2026 11:15 15,3 66,2 0 1,5 20 556,9 990,9
45 Coihueco 30-08-2026 11:00 15,1 67,9 0 1 1 605,6 991
44 Coihueco 30-08-2026 10:45 14,1 71,7 0 0,5 329 603,1 991,1
43 Coihueco 30-08-2026 10:30 13,2 75,2 0 0,5 344 324,4 991,1
42 Coihueco 30-08-2026 10:15 12,6 78,9 0 0,5 352 454,4 991,2
41 Coihueco 30-08-2026 10:00 12,2 79,5 0 0 55 468,1 991,3
40 Coihueco 30-08-2026 09:45 10,9 82,8 0 0 59 474,4 991,1
39 Coihueco 30-08-2026 09:30 10,2 82,5 0 0 74 226,9 991,2
38 Coihueco 30-08-2026 09:15 9,4 83,2 0 0 126 229,4 991,2
37 Coihueco 30-08-2026 09:00 9 86,1 0 0 126 296,9 991,1
36 Coihueco 30-08-2026 08:45 8,1 88,1 0 0 126 278,1 991,2
35 Coihueco 30-08-2026 08:30 8,4 87,4 0 0 128 231,9 991,1
34 Coihueco 30-08-2026 08:15 6,2 92,2 0 0 128 174,4 991
33 Coihueco 30-08-2026 08:00 5,5 95,9 0 0 128 121,9 990,9
32 Coihueco 30-08-2026 07:45 3,4 100 0 0 128 79,4 990,8
31 Coihueco 30-08-2026 07:30 2,1 99,5 0 0 126 28,1 990,4
30 Coihueco 30-08-2026 07:15 2,6 99,2 0 0 126 6,9 990,2
29 Coihueco 30-08-2026 07:00 3,3 99,2 0 0 126 0,6 989,9
28 Coihueco 30-08-2026 06:45 3,5 100 0 0 126 0,6 989,7
27 Coihueco 30-08-2026 06:30 3,3 97,7 0 0 126 0,6 989,6
26 Coihueco 30-08-2026 06:15 3,8 97,9 0 0 126 0,6 989,5
25 Coihueco 30-08-2026 06:00 4,5 96,3 0 0 126 0,6 989,5
24 Coihueco 30-08-2026 05:45 5,2 95,1 0 0 126 0,6 989,5
23 Coihueco 30-08-2026 05:30 5,5 95,6 0 0 128 0,6 989,6
22 Coihueco 30-08-2026 05:15 5,5 96 0 0 133 0,6 989,7
21 Coihueco 30-08-2026 05:00 5,3 97,4 0 0 135 0,6 989,9
20 Coihueco 30-08-2026 04:45 5,7 96,1 0 0 147 0,6 989,7
19 Coihueco 30-08-2026 04:30 4,7 99,2 0 0 159 0,6 989,7
18 Coihueco 30-08-2026 04:15 4,2 98,3 0 0 159 0,6 989,7
17 Coihueco 30-08-2026 04:00 4,7 97,4 0 0 159 0,6 989,7
16 Coihueco 30-08-2026 03:45 5,7 95,5 0 0 159 0,6 989,9
15 Coihueco 30-08-2026 03:30 6,2 95,2 0 0 159 0,6 990
14 Coihueco 30-08-2026 03:15 6,6 94,6 0 0 146 0,6 990,2
13 Coihueco 30-08-2026 03:00 6,9 93,7 0 0 131 0,6 990,4
12 Coihueco 30-08-2026 02:45 6,7 95,2 0 0 122 0,6 990,5
11 Coihueco 30-08-2026 02:30 6,7 95,8 0 0 115 0,6 990,6
10 Coihueco 30-08-2026 02:15 6,8 96,7 0 0 110 0,6 990,9
9 Coihueco 30-08-2026 02:00 6,7 96,7 0 0 108 0,6 991,3
8 Coihueco 30-08-2026 01:45 7 96,9 0 0 107 0,6 991,4
7 Coihueco 30-08-2026 01:30 6,9 98,6 0 0 91 0,6 991,6
6 Coihueco 30-08-2026 01:15 6,5 99,5 0 0 32 0,6 991,9
5 Coihueco 30-08-2026 01:00 6,3 98,8 0 0 32 0,6 991,9
4 Coihueco 30-08-2026 00:45 6,7 98,3 0 0 32 0,6 992
3 Coihueco 30-08-2026 00:30 7,2 97,8 0 0 32 0,6 992,3
2 Coihueco 30-08-2026 00:15 7,6 97,3 0 0 32 0,6 992,4
1 Coihueco 30-08-2026 00:00 7,8 97,2 0 0 32 0,6 992,6